Time;durP1;ratioP1;P1;durP2;ratioP2;P2;SDS_P1;SDS_P2;PMS_P1;PMS_P2;Temp;Humidity;BMP_temperature;BMP_pressure;BME280_temperature;BME280_humidity;BME280_pressure;Samples;Min_cycle;Max_cycle;Signal;HPM_P1;HPM_P2
2021/09/17 00:00:49;;;;;;;;;;;;;;;13.62;86.14;96637.19;5076135;28;20016;-83
2021/09/17 00:03:14;;;;;;;;;;;;;;;13.57;86.46;96641.34;5074493;28;19961;-83
2021/09/17 00:05:40;;;;;;;;;;;;;;;13.54;86.41;96644.44;5076372;28;19971;-83
2021/09/17 00:08:07;;;;;;;;;;;;;;;13.52;86.65;96645.69;5076352;28;20466;-83
2021/09/17 00:10:33;;;;;;;;;;;;;;;13.49;87.02;96649.59;5075679;28;19964;-83
2021/09/17 00:12:58;;;;;;;;;;;;;;;13.47;87.26;96648.22;5076206;28;19960;-83
2021/09/17 00:15:24;;;;;;;;;;;;;;;13.45;87.31;96645.81;5075870;28;20439;-83
2021/09/17 00:17:50;;;;;;;;;;;;;;;13.46;87.84;96643.97;5076020;28;20012;-83
2021/09/17 00:20:16;;;;;;;;;;;;;;;13.48;88.15;96648.00;5075819;28;19961;-83
2021/09/17 00:22:43;;;;;;;;;;;;;;;13.48;88.38;96648.00;5075843;28;19988;-83
2021/09/17 00:25:09;;;;;;;;;;;;;;;13.48;88.12;96648.00;5075483;28;19952;-83
2021/09/17 00:27:35;;;;;;;;;;;;;;;13.48;88.31;96639.28;5076310;28;20324;-83
2021/09/17 00:30:02;;;;;;;;;;;;;;;13.45;88.38;96643.19;5075784;28;19991;-83
2021/09/17 00:32:28;;;;;;;;;;;;;;;13.46;88.49;96643.97;5075658;28;19968;-83
2021/09/17 00:34:54;;;;;;;;;;;;;;;13.45;88.06;96637.91;5073767;28;19989;-83
2021/09/17 00:37:20;;;;;;;;;;;;;;;13.43;88.24;96634.69;5057648;28;20019;-83
2021/09/17 00:39:46;;;;;;;;;;;;;;;13.41;88.35;96634.13;5075382;28;19961;-83
2021/09/17 00:42:12;;;;;;;;;;;;;;;13.40;88.69;96635.19;5075609;28;19972;-83
2021/09/17 00:44:38;;;;;;;;;;;;;;;13.39;88.94;96637.00;5075451;28;20071;-83
2021/09/17 00:47:04;;;;;;;;;;;;;;;13.41;88.70;96631.50;5075440;28;19977;-83
2021/09/17 00:49:29;;;;;;;;;;;;;;;13.38;88.21;96627.50;5073935;28;19995;-83
2021/09/17 00:51:55;;;;;;;;;;;;;;;13.37;88.28;96628.50;5075021;28;20051;-83
2021/09/17 00:54:21;;;;;;;;;;;;;;;13.38;88.99;96624.88;5073907;28;19998;-83
2021/09/17 00:56:47;;;;;;;;;;;;;;;13.39;88.76;96633.56;5075352;28;20335;-83
2021/09/17 00:59:13;;;;;;;;;;;;;;;13.38;88.76;96627.50;5075162;28;19960;-83
2021/09/17 01:01:39;;;;;;;;;;;;;;;13.38;88.55;96630.13;5075210;28;20342;-83
2021/09/17 01:04:06;;;;;;;;;;;;;;;13.37;88.13;96619.81;5075064;28;19965;-83
2021/09/17 01:06:32;;;;;;;;;;;;;;;13.37;88.21;96622.44;5074842;28;19965;-83
2021/09/17 01:08:59;;;;;;;;;;;;;;;13.39;88.54;96620.38;5074923;28;19972;-83
2021/09/17 01:11:25;;;;;;;;;;;;;;;13.39;88.61;96626.44;5075000;28;19960;-83
2021/09/17 01:13:52;;;;;;;;;;;;;;;13.39;88.34;96620.38;5075191;28;19957;-83
2021/09/17 01:16:18;;;;;;;;;;;;;;;13.38;87.73;96622.22;5074631;28;19974;-83
2021/09/17 01:18:44;;;;;;;;;;;;;;;13.39;87.87;96620.38;5074726;28;20371;-83
2021/09/17 01:21:10;;;;;;;;;;;;;;;13.38;87.96;96622.22;5074556;28;19971;-83
2021/09/17 01:23:36;;;;;;;;;;;;;;;13.39;88.19;96617.75;5074743;28;20417;-83
2021/09/17 01:26:02;;;;;;;;;;;;;;;13.40;87.89;96616.75;5074828;28;20016;-83
2021/09/17 01:28:29;;;;;;;;;;;;;;;13.40;87.32;96614.91;5073457;28;19959;-83
2021/09/17 01:30:55;;;;;;;;;;;;;;;13.40;87.62;96612.25;5073339;28;19957;-83
2021/09/17 01:33:21;;;;;;;;;;;;;;;13.42;88.21;96612.03;5074559;28;19962;-83
2021/09/17 01:35:54;;;;;;;;;;;;;;;13.44;87.64;96598.63;5074014;28;20103;-83
2021/09/17 01:38:20;;;;;;;;;;;;;;;13.44;87.71;96606.53;5072765;28;20406;-83
2021/09/17 01:40:46;;;;;;;;;;;;;;;13.44;87.97;96599.44;5074636;28;20004;-83
2021/09/17 01:43:12;;;;;;;;;;;;;;;13.42;87.17;96598.88;5074123;28;20392;-83
2021/09/17 01:45:38;;;;;;;;;;;;;;;13.39;87.66;96600.09;5074082;28;20029;-83
2021/09/17 01:48:04;;;;;;;;;;;;;;;13.41;88.32;96597.25;5074292;28;19966;-83
2021/09/17 01:50:30;;;;;;;;;;;;;;;13.42;88.72;96593.59;5074056;28;20402;-83
2021/09/17 01:52:56;;;;;;;;;;;;;;;13.43;88.60;96589.13;5074174;28;20117;-83
2021/09/17 01:55:23;;;;;;;;;;;;;;;13.45;88.59;96593.13;5073267;28;20096;-83
2021/09/17 01:57:50;;;;;;;;;;;;;;;13.45;88.17;96590.50;5074145;28;19972;-83
2021/09/17 02:00:16;;;;;;;;;;;;;;;13.46;88.41;96586.84;5074053;28;19964;-83
2021/09/17 02:02:42;;;;;;;;;;;;;;;13.47;88.71;96580.53;5073939;28;19960;-83
2021/09/17 02:05:08;;;;;;;;;;;;;;;13.49;88.97;96585.56;5073970;28;20072;-83
2021/09/17 02:07:34;;;;;;;;;;;;;;;13.49;88.86;96583.72;5073781;28;19965;-83
2021/09/17 02:10:00;;;;;;;;;;;;;;;13.49;88.61;96585.56;5073590;28;19962;-83
2021/09/17 02:12:26;;;;;;;;;;;;;;;13.48;88.89;96581.31;5074134;28;19952;-83
2021/09/17 02:14:52;;;;;;;;;;;;;;;13.47;88.93;96580.53;5073698;28;20330;-83
2021/09/17 02:17:18;;;;;;;;;;;;;;;13.47;88.89;96575.25;5073704;28;19979;-83
2021/09/17 02:19:44;;;;;;;;;;;;;;;13.48;89.19;96576.88;5073746;28;19971;-83
2021/09/17 02:22:10;;;;;;;;;;;;;;;13.49;89.18;96577.66;5073832;28;19996;-83
2021/09/17 02:24:36;;;;;;;;;;;;;;;13.50;89.56;96576.63;5073761;28;20460;-83
2021/09/17 02:27:02;;;;;;;;;;;;;;;13.50;89.40;96573.97;5074128;28;19962;-83
2021/09/17 02:29:27;;;;;;;;;;;;;;;13.50;89.98;96582.72;5073923;28;19967;-83
2021/09/17 02:31:53;;;;;;;;;;;;;;;13.50;89.93;96579.25;5073843;28;19970;-83
2021/09/17 02:34:19;;;;;;;;;;;;;;;13.51;89.76;96575.59;5073478;28;20432;-83
2021/09/17 02:36:45;;;;;;;;;;;;;;;13.51;89.64;96575.59;5073848;28;20342;-83
2021/09/17 02:39:13;;;;;;;;;;;;;;;13.47;89.46;96577.88;5073563;28;19962;-83
2021/09/17 02:41:39;;;;;;;;;;;;;;;13.48;89.75;96582.13;5073597;28;19958;-83
2021/09/17 02:44:05;;;;;;;;;;;;;;;13.48;90.19;96576.03;5073427;28;19967;-83
2021/09/17 02:46:31;;;;;;;;;;;;;;;13.47;89.34;96562.06;5073589;28;19966;-83
2021/09/17 02:48:57;;;;;;;;;;;;;;;13.46;89.41;96570.22;5072084;28;19959;-83
2021/09/17 02:51:23;;;;;;;;;;;;;;;13.46;89.10;96570.22;5073544;28;20023;-83
2021/09/17 02:53:49;;;;;;;;;;;;;;;13.45;89.94;96577.31;5073446;28;20050;-83
2021/09/17 02:56:14;;;;;;;;;;;;;;;13.47;89.78;96574.47;5074871;28;19984;-83
2021/09/17 02:58:40;;;;;;;;;;;;;;;13.46;89.61;96571.03;5064286;28;20416;-83
2021/09/17 03:01:06;;;;;;;;;;;;;;;13.46;89.41;96571.03;5077169;28;19958;-83
2021/09/17 03:03:32;;;;;;;;;;;;;;;13.46;89.34;96560.50;5077442;28;20015;-83
2021/09/17 03:05:58;;;;;;;;;;;;;;;13.45;89.76;96564.13;5077242;28;19999;-83
2021/09/17 03:08:24;;;;;;;;;;;;;;;13.45;89.68;96561.50;5076060;28;19989;-82
2021/09/17 03:10:52;;;;;;;;;;;;;;;13.47;89.64;96563.91;5077125;28;19970;-82
2021/09/17 03:13:18;;;;;;;;;;;;;;;13.46;90.01;96565.75;5077159;28;20023;-83
2021/09/17 03:15:43;;;;;;;;;;;;;;;13.47;89.92;96563.91;5076818;28;20501;-83
2021/09/17 03:18:09;;;;;;;;;;;;;;;13.46;90.26;96555.22;5077279;28;19968;-82
2021/09/17 03:20:35;;;;;;;;;;;;;;;13.45;90.06;96558.09;5077559;28;19978;-83
2021/09/17 03:23:01;;;;;;;;;;;;;;;13.45;89.89;96553.59;5076947;28;19971;-83
2021/09/17 03:25:27;;;;;;;;;;;;;;;13.46;90.42;96557.84;5075730;28;19996;-83
2021/09/17 03:27:53;;;;;;;;;;;;;;;13.46;90.27;96551.75;5076921;28;20044;-83
2021/09/17 03:30:19;;;;;;;;;;;;;;;13.46;90.33;96551.75;5076710;28;20408;-83
2021/09/17 03:32:45;;;;;;;;;;;;;;;13.46;90.15;96554.41;5075446;28;20045;-83
2021/09/17 03:35:11;;;;;;;;;;;;;;;13.47;90.42;96558.66;5076761;28;20010;-83
2021/09/17 03:37:37;;;;;;;;;;;;;;;13.46;90.70;96549.94;5076555;28;20070;-83
2021/09/17 03:40:03;;;;;;;;;;;;;;;13.48;90.52;96552.34;5075523;28;19963;-83
2021/09/17 03:42:29;;;;;;;;;;;;;;;13.47;90.47;96551.53;5076596;28;19959;-83
2021/09/17 03:44:56;;;;;;;;;;;;;;;13.47;90.60;96559.44;5076374;28;20070;-82
2021/09/17 03:47:21;;;;;;;;;;;;;;;13.49;90.58;96556.59;5076287;28;19974;-83
2021/09/17 03:49:47;;;;;;;;;;;;;;;13.47;90.68;96556.81;5075264;28;19966;-83
2021/09/17 03:52:13;;;;;;;;;;;;;;;13.47;90.67;96548.91;5076670;28;19993;-83
2021/09/17 03:54:39;;;;;;;;;;;;;;;13.49;90.82;96548.69;5062420;28;19998;-83
2021/09/17 03:57:05;;;;;;;;;;;;;;;13.48;90.85;96553.16;5077876;28;19981;-82
2021/09/17 03:59:31;;;;;;;;;;;;;;;13.48;90.75;96558.44;5075422;28;19959;-83
2021/09/17 04:02:00;;;;;;;;;;;;;;;13.48;90.93;96554.97;5076391;28;19955;-83
2021/09/17 04:04:27;;;;;;;;;;;;;;;13.48;90.66;96550.53;5076342;28;20333;-83
2021/09/17 04:06:53;;;;;;;;;;;;;;;13.48;90.45;96553.16;5075623;28;19967;-83
2021/09/17 04:09:18;;;;;;;;;;;;;;;13.46;90.19;96546.50;5076122;28;20411;-83
2021/09/17 04:11:45;;;;;;;;;;;;;;;13.43;90.14;96539.88;5076146;28;19967;-83
2021/09/17 04:14:11;;;;;;;;;;;;;;;13.43;90.94;96547.78;5075808;28;19956;-83
2021/09/17 04:16:37;;;;;;;;;;;;;;;13.43;91.30;96539.88;5076253;28;19976;-83
2021/09/17 04:19:03;;;;;;;;;;;;;;;13.45;91.20;96537.00;5076054;28;20328;-83
2021/09/17 04:21:29;;;;;;;;;;;;;;;13.44;90.88;96536.22;5076463;28;20002;-83
2021/09/17 04:23:55;;;;;;;;;;;;;;;13.46;91.07;96542.06;5075890;28;19958;-83
2021/09/17 04:26:22;;;;;;;;;;;;;;;13.46;90.77;96538.59;5075809;28;19970;-83
2021/09/17 04:28:49;;;;;;;;;;;;;;;13.48;90.75;96539.16;5075596;28;20361;-83
2021/09/17 04:31:15;;;;;;;;;;;;;;;13.46;90.87;96539.41;5075475;28;19954;-83
2021/09/17 04:33:41;;;;;;;;;;;;;;;13.46;90.85;96544.69;5075756;28;19959;-82
2021/09/17 04:36:07;;;;;;;;;;;;;;;13.48;90.80;96555.78;5075625;28;19972;-83
2021/09/17 04:38:33;;;;;;;;;;;;;;;13.46;90.86;96547.31;5075521;28;20009;-83
2021/09/17 04:40:59;;;;;;;;;;;;;;;13.47;90.80;96556.00;5075355;28;20336;-83
2021/09/17 04:43:27;;;;;;;;;;;;;;;13.47;90.64;96554.19;5074210;28;19972;-83
2021/09/17 04:45:53;;;;;;;;;;;;;;;13.47;90.69;96551.53;5075464;28;19960;-83
2021/09/17 04:48:19;;;;;;;;;;;;;;;13.47;91.08;96566.56;5075504;28;19976;-83
2021/09/17 04:50:45;;;;;;;;;;;;;;;13.47;90.84;96556.81;5075264;28;20428;-83
2021/09/17 04:53:11;;;;;;;;;;;;;;;13.46;90.88;96555.22;5075242;28;19962;-83
2021/09/17 04:55:37;;;;;;;;;;;;;;;13.46;90.16;96555.22;5074985;28;19965;-83
2021/09/17 04:58:04;;;;;;;;;;;;;;;13.45;90.02;96550.19;5075258;28;19958;-83
2021/09/17 05:00:31;;;;;;;;;;;;;;;13.44;89.58;96559.09;5075695;28;20418;-82
2021/09/17 05:02:57;;;;;;;;;;;;;;;13.42;89.56;96562.00;5075052;28;19962;-82
2021/09/17 05:05:24;;;;;;;;;;;;;;;13.42;89.43;96561.16;5075118;28;20417;-83
2021/09/17 05:07:50;;;;;;;;;;;;;;;13.41;89.81;96555.09;5075002;28;20333;-83
2021/09/17 05:10:19;;;;;;;;;;;;;;;13.42;90.02;96561.16;5073759;28;19971;-83
2021/09/17 05:12:45;;;;;;;;;;;;;;;13.40;89.50;96556.16;5075235;28;19978;-83
2021/09/17 05:15:11;;;;;;;;;;;;;;;13.42;89.56;96556.72;5074635;28;20429;-82
2021/09/17 05:17:37;;;;;;;;;;;;;;;13.40;89.51;96556.16;5074791;28;19978;-83
2021/09/17 05:20:03;;;;;;;;;;;;;;;13.42;89.86;96563.81;5074155;28;19959;-83
2021/09/17 05:22:29;;;;;;;;;;;;;;;13.43;90.33;96566.22;5074497;28;19952;-83
2021/09/17 05:24:57;;;;;;;;;;;;;;;13.44;90.40;96564.38;5074541;28;19964;-82
2021/09/17 05:27:25;;;;;;;;;;;;;;;13.44;90.64;96561.72;5074627;28;19962;-83
2021/09/17 05:29:52;;;;;;;;;;;;;;;13.44;90.78;96567.00;5074454;28;19960;-82
2021/09/17 05:32:18;;;;;;;;;;;;;;;13.45;90.84;96568.63;5074714;28;19961;-83
2021/09/17 05:34:44;;;;;;;;;;;;;;;13.45;90.90;96576.53;5074466;28;19985;-83
2021/09/17 05:37:10;;;;;;;;;;;;;;;13.45;91.20;96579.16;5074382;28;21017;-82
2021/09/17 05:39:36;;;;;;;;;;;;;;;13.46;91.15;96576.28;5074352;28;19965;-83
2021/09/17 05:42:02;;;;;;;;;;;;;;;13.46;91.16;96584.19;5074308;28;19955;-82
2021/09/17 05:44:28;;;;;;;;;;;;;;;13.48;91.32;96576.88;5074750;28;19953;-83
2021/09/17 05:46:54;;;;;;;;;;;;;;;13.50;91.34;96579.25;5073010;28;19969;-82
2021/09/17 05:49:20;;;;;;;;;;;;;;;13.51;91.01;96575.59;5074259;28;19960;-82
2021/09/17 05:51:46;;;;;;;;;;;;;;;13.52;91.54;96579.81;5073916;28;19962;-82
2021/09/17 05:54:12;;;;;;;;;;;;;;;13.55;91.69;96576.72;5073961;28;19964;-82
2021/09/17 05:56:37;;;;;;;;;;;;;;;13.58;91.33;96570.97;5072959;28;19978;-83
2021/09/17 05:59:03;;;;;;;;;;;;;;;13.72;91.40;96571.53;5074199;28;19970;-82
2021/09/17 06:01:29;;;;;;;;;;;;;;;14.05;90.15;96570.00;5073970;28;19961;-82
2021/09/17 06:03:55;;;;;;;;;;;;;;;14.33;88.95;96567.34;5074131;28;20012;-82
2021/09/17 06:06:21;;;;;;;;;;;;;;;14.48;87.26;96568.63;5074338;28;20420;-83
2021/09/17 06:08:48;;;;;;;;;;;;;;;14.48;86.76;96561.50;5073578;28;19959;-83
2021/09/17 06:11:14;;;;;;;;;;;;;;;14.44;85.83;96572.78;5074053;28;19958;-82
2021/09/17 06:13:40;;;;;;;;;;;;;;;14.36;86.38;96566.06;5074509;28;20517;-82
2021/09/17 06:16:06;;;;;;;;;;;;;;;14.29;86.26;96565.41;5073635;28;19967;-82
2021/09/17 06:18:32;;;;;;;;;;;;;;;14.21;86.53;96564.78;5074030;28;20038;-82
2021/09/17 06:20:58;;;;;;;;;;;;;;;14.18;87.02;96570.50;5073732;28;20411;-82
2021/09/17 06:23:25;;;;;;;;;;;;;;;14.15;86.98;96578.09;5073661;28;19979;-82
2021/09/17 06:25:51;;;;;;;;;;;;;;;14.14;87.70;96573.88;5073496;28;19966;-83
2021/09/17 06:28:17;;;;;;;;;;;;;;;14.12;87.78;96570.66;5072564;28;19996;-82
2021/09/17 06:30:42;;;;;;;;;;;;;;;14.11;88.22;96580.44;5073458;28;20014;-82
2021/09/17 06:33:08;;;;;;;;;;;;;;;14.11;87.89;96579.59;5073926;28;19969;-82
2021/09/17 06:35:35;;;;;;;;;;;;;;;14.10;87.38;96580.66;5073203;28;19992;-82
2021/09/17 06:38:01;;;;;;;;;;;;;;;14.07;87.43;96574.03;5073439;28;20004;-82
2021/09/17 06:40:27;;;;;;;;;;;;;;;14.08;88.00;96580.88;5073725;28;19994;-82
2021/09/17 06:42:54;;;;;;;;;;;;;;;14.11;88.71;96579.59;5073493;28;19961;-82
2021/09/17 06:45:20;;;;;;;;;;;;;;;14.13;88.40;96574.91;5073663;28;19976;-82
2021/09/17 06:47:49;;;;;;;;;;;;;;;14.15;87.80;96565.72;5073670;28;19959;-82
2021/09/17 06:50:16;;;;;;;;;;;;;;;14.16;88.19;96569.97;5073348;28;19956;-82
2021/09/17 06:52:47;;;;;;;;;;;;;;;14.20;87.61;96578.19;5073683;28;19961;-82
2021/09/17 06:55:14;;;;;;;;;;;;;;;14.20;87.50;96568.44;5073951;28;19963;-82
2021/09/17 06:57:46;;;;;;;;;;;;;;;14.24;88.04;96574.06;5073259;28;19980;-82
2021/09/17 07:00:13;;;;;;;;;;;;;;;14.28;87.83;96572.53;5073478;28;20438;-82
2021/09/17 07:02:39;;;;;;;;;;;;;;;14.30;87.33;96570.47;5073556;28;19986;-82
2021/09/17 07:05:05;;;;;;;;;;;;;;;14.34;87.83;96568.13;5073434;28;20399;-82
2021/09/17 07:07:31;;;;;;;;;;;;;;;14.37;87.83;96563.19;5073390;28;19974;-82
2021/09/17 07:09:56;;;;;;;;;;;;;;;14.40;86.10;96570.63;5073228;28;20062;-82
2021/09/17 07:12:22;;;;;;;;;;;;;;;14.44;86.03;96570.16;5072999;28;19962;-82
2021/09/17 07:14:48;;;;;;;;;;;;;;;14.48;86.85;96576.53;5073329;28;19959;-82
2021/09/17 07:17:14;;;;;;;;;;;;;;;14.52;86.34;96569.75;5072953;28;20422;-82
2021/09/17 07:19:40;;;;;;;;;;;;;;;14.56;85.31;96570.91;5073254;28;19958;-82
2021/09/17 07:22:07;;;;;;;;;;;;;;;14.60;85.54;96578.09;5073391;28;19970;-82
2021/09/17 07:24:33;;;;;;;;;;;;;;;14.66;85.52;96573.72;5073142;28;20430;-82
2021/09/17 07:26:59;;;;;;;;;;;;;;;14.72;84.86;96574.56;5073214;28;20046;-82
2021/09/17 07:29:26;;;;;;;;;;;;;;;14.78;84.55;96568.31;5073144;28;19967;-82
2021/09/17 07:31:52;;;;;;;;;;;;;;;14.82;84.64;96567.63;5072850;28;19970;-82
2021/09/17 07:34:18;;;;;;;;;;;;;;;14.89;82.77;96567.44;5072930;28;19965;-82
2021/09/17 07:36:43;;;;;;;;;;;;;;;14.93;82.41;96575.66;5073187;28;19994;-82
2021/09/17 07:39:09;;;;;;;;;;;;;;;14.95;83.83;96577.06;5073033;28;20239;-82
2021/09/17 07:41:35;;;;;;;;;;;;;;;14.93;82.57;96573.84;5073624;28;19967;-82
2021/09/17 07:44:02;;;;;;;;;;;;;;;14.96;83.08;96575.19;5076421;28;19963;-82
2021/09/17 07:46:28;;;;;;;;;;;;;;;14.95;82.82;96574.41;5076367;28;19965;-82
2021/09/17 07:48:54;;;;;;;;;;;;;;;14.93;82.23;96573.03;5076361;28;19959;-82
2021/09/17 07:51:21;;;;;;;;;;;;;;;14.91;82.82;96575.13;5076496;28;19965;-82
2021/09/17 07:53:47;;;;;;;;;;;;;;;14.94;84.14;96572.00;5075940;28;19972;-82
2021/09/17 07:56:12;;;;;;;;;;;;;;;15.02;83.72;96574.22;5076099;28;19969;-82
2021/09/17 07:58:39;;;;;;;;;;;;;;;15.08;83.72;96570.63;5076323;28;19964;-82
2021/09/17 08:01:05;;;;;;;;;;;;;;;15.12;82.56;96571.75;5074761;28;19958;-82
2021/09/17 08:03:32;;;;;;;;;;;;;;;15.13;82.44;96567.25;5076192;28;19963;-82
2021/09/17 08:05:58;;;;;;;;;;;;;;;15.23;82.61;96568.19;5075224;28;19965;-82
2021/09/17 08:08:24;;;;;;;;;;;;;;;15.29;81.55;96570.91;5076110;28;19957;-82
2021/09/17 08:10:50;;;;;;;;;;;;;;;15.41;82.25;96574.19;5076132;28;19980;-82
2021/09/17 08:13:17;;;;;;;;;;;;;;;15.50;83.00;96569.31;5076024;28;20309;-82
2021/09/17 08:15:43;;;;;;;;;;;;;;;15.65;83.27;96566.84;5075778;28;19961;-82
2021/09/17 08:18:09;;;;;;;;;;;;;;;15.76;81.83;96567.78;5076025;28;19982;-82
2021/09/17 08:20:37;;;;;;;;;;;;;;;15.85;80.49;96565.50;5075825;28;20015;-82
2021/09/17 08:23:03;;;;;;;;;;;;;;;15.85;79.82;96563.63;5074728;28;19968;-82
2021/09/17 08:25:29;;;;;;;;;;;;;;;15.86;80.99;96567.91;5075949;28;19964;-82
2021/09/17 08:27:55;;;;;;;;;;;;;;;15.97;81.35;96572.25;5075766;28;20415;-82
2021/09/17 08:30:21;;;;;;;;;;;;;;;16.08;80.92;96569.69;5075601;28;20004;-82
2021/09/17 08:33:02;;;;;;;;;;;;;;;16.15;79.24;96571.09;5067335;28;19976;-82
2021/09/17 08:35:48;;;;;;;;;;;;;;;16.14;79.68;96574.00;5074711;28;19985;-82
2021/09/17 08:38:34;;;;;;;;;;;;;;;16.18;79.16;96572.44;5074596;28;20449;-82
2021/09/17 08:41:02;;;;;;;;;;;;;;;16.22;79.39;96571.69;5075891;28;19967;-82
2021/09/17 08:43:29;;;;;;;;;;;;;;;16.25;76.44;96559.81;5075515;28;20019;-81
2021/09/17 08:45:55;;;;;;;;;;;;;;;16.30;76.35;96575.75;5075434;28;19982;-82
2021/09/17 08:48:27;;;;;;;;;;;;;;;16.33;78.56;96569.94;5075450;28;20377;-82
2021/09/17 08:50:54;;;;;;;;;;;;;;;16.47;78.52;96572.19;5075150;28;19971;-82
2021/09/17 08:53:20;;;;;;;;;;;;;;;16.58;76.48;96574.66;5075332;28;19970;-82
2021/09/17 08:55:47;;;;;;;;;;;;;;;16.49;75.92;96578.03;5074191;28;20419;-82
2021/09/17 08:58:13;;;;;;;;;;;;;;;16.43;76.46;96577.16;5075315;28;19990;-82
2021/09/17 09:00:40;;;;;;;;;;;;;;;16.46;77.19;96570.56;5074996;28;19971;-82
2021/09/17 09:03:08;;;;;;;;;;;;;;;16.55;76.66;96583.09;5074202;28;20414;-82
2021/09/17 09:05:35;;;;;;;;;;;;;;;16.67;75.12;96572.31;5064306;28;19985;-82
2021/09/17 09:08:02;;;;;;;;;;;;;;;16.76;76.48;96570.81;5074769;28;19957;-82
2021/09/17 09:10:29;;;;;;;;;;;;;;;16.80;74.41;96574.59;5073242;28;19990;-82
2021/09/17 09:12:57;;;;;;;;;;;;;;;16.75;66.23;96537.44;5075053;28;19977;-82
2021/09/17 09:15:29;;;;;;;;;;;;;;;16.70;72.19;96576.34;5074808;28;19964;-82
2021/09/17 09:17:57;;;;;;;;;;;;;;;16.64;72.28;96571.00;5074831;28;19989;-82
2021/09/17 09:20:30;;;;;;;;;;;;;;;16.65;69.63;96563.84;5074599;28;19952;-82
2021/09/17 09:23:04;;;;;;;;;;;;;;;16.65;72.33;96566.47;5075114;28;19962;-82
2021/09/17 09:25:30;;;;;;;;;;;;;;;16.72;72.35;96563.63;5065946;28;19964;-82
2021/09/17 09:28:12;;;;;;;;;;;;;;;16.82;72.54;96563.75;5073181;28;20425;-82
2021/09/17 09:30:38;;;;;;;;;;;;;;;16.92;72.22;96558.50;5074504;28;19967;-82
2021/09/17 09:33:23;;;;;;;;;;;;;;;16.95;68.58;96554.56;5075405;28;19964;-82
2021/09/17 09:35:59;;;;;;;;;;;;;;;16.96;70.27;96562.22;5073943;28;19987;-82
2021/09/17 09:38:32;;;;;;;;;;;;;;;16.98;67.23;96541.56;5074750;28;20343;-81
2021/09/17 09:40:59;;;;;;;;;;;;;;;16.97;67.26;96549.81;5074382;28;19958;-82
2021/09/17 09:43:28;;;;;;;;;;;;;;;16.95;68.60;96557.22;5074155;28;19954;-82
2021/09/17 09:45:54;;;;;;;;;;;;;;;16.95;68.36;96554.56;5074317;28;19959;-82
2021/09/17 09:48:20;;;;;;;;;;;;;;;16.95;66.36;96542.09;5074324;28;19988;-82
2021/09/17 09:50:46;;;;;;;;;;;;;;;17.07;68.23;96544.53;5074250;28;19973;-82
2021/09/17 09:53:15;;;;;;;;;;;;;;;17.16;68.72;96540.38;5074234;28;19971;-82
2021/09/17 09:55:41;;;;;;;;;;;;;;;17.19;69.32;96555.72;5074184;28;20444;-82
2021/09/17 09:58:07;;;;;;;;;;;;;;;17.27;69.68;96551.03;5073956;28;20333;-82
2021/09/17 10:00:33;;;;;;;;;;;;;;;17.29;64.58;96517.09;5074096;28;20055;-82
2021/09/17 10:02:59;;;;;;;;;;;;;;;17.29;68.08;96544.41;5074073;28;20438;-82
2021/09/17 10:05:27;;;;;;;;;;;;;;;17.27;67.56;96540.41;5073817;28;19961;-82
2021/09/17 10:07:53;;;;;;;;;;;;;;;17.23;64.82;96526.88;5073904;28;19962;-82
2021/09/17 10:10:19;;;;;;;;;;;;;;;17.24;64.42;96518.69;5073991;28;19963;-82
2021/09/17 10:12:46;;;;;;;;;;;;;;;17.22;59.19;96473.09;5073572;28;19960;-82
2021/09/17 10:15:13;;;;;;;;;;;;;;;17.26;65.96;96534.31;5074026;28;20405;-82
2021/09/17 10:17:40;;;;;;;;;;;;;;;17.41;66.73;96528.28;5074082;28;19975;-82
2021/09/17 10:20:08;;;;;;;;;;;;;;;17.51;65.13;96522.22;5072378;28;19980;-81
2021/09/17 10:22:38;;;;;;;;;;;;;;;17.61;66.38;96524.91;5073688;28;19968;-82
2021/09/17 10:25:12;;;;;;;;;;;;;;;17.64;61.61;96488.06;5073456;28;19979;-82
2021/09/17 10:27:40;;;;;;;;;;;;;;;17.55;60.22;96476.34;5073840;28;19964;-82
2021/09/17 10:30:16;;;;;;;;;;;;;;;17.42;62.57;96503.34;5073238;28;19959;-82
2021/09/17 10:32:50;;;;;;;;;;;;;;;17.39;63.89;96514.50;5073772;28;19955;-82
2021/09/17 10:35:36;;;;;;;;;;;;;;;17.36;60.65;96480.53;5073639;28;20356;-82
2021/09/17 10:38:19;;;;;;;;;;;;;;;17.37;63.67;96506.00;5069404;28;19983;-82
2021/09/17 10:40:54;;;;;;;;;;;;;;;17.36;63.57;96513.13;5073620;28;19968;-82
2021/09/17 10:43:24;;;;;;;;;;;;;;;17.39;62.81;96499.38;5056446;28;19961;-81
2021/09/17 10:45:52;;;;;;;;;;;;;;;17.44;64.03;96511.84;5073420;28;19976;-82
2021/09/17 10:48:19;;;;;;;;;;;;;;;17.51;66.10;96528.31;5073599;28;20409;-82
2021/09/17 10:50:50;;;;;;;;;;;;;;;17.58;62.86;96493.59;5073304;28;19982;-82
2021/09/17 10:53:34;;;;;;;;;;;;;;;17.60;60.22;96476.38;5073832;28;19972;-82
2021/09/17 10:56:03;;;;;;;;;;;;;;;17.57;63.77;96500.75;5073191;28;20303;-82
2021/09/17 10:58:30;;;;;;;;;;;;;;;17.49;60.11;96477.41;5073090;28;19981;-82
2021/09/17 11:00:58;;;;;;;;;;;;;;;17.48;63.05;96498.88;5073526;28;20416;-82
2021/09/17 11:03:39;;;;;;;;;;;;;;;17.51;63.48;96508.94;5073053;28;19966;-82
2021/09/17 11:06:26;;;;;;;;;;;;;;;17.53;61.84;96486.41;5073171;28;19975;-82
2021/09/17 11:08:52;;;;;;;;;;;;;;;17.50;59.02;96460.44;5073237;28;19965;-82
2021/09/17 11:11:30;;;;;;;;;;;;;;;17.43;61.92;96494.38;5073323;28;19960;-82
2021/09/17 11:13:58;;;;;;;;;;;;;;;17.50;64.01;96510.81;5073490;28;20343;-82
2021/09/17 11:16:25;;;;;;;;;;;;;;;17.60;64.13;96507.41;5073217;28;19971;-82
2021/09/17 11:18:52;;;;;;;;;;;;;;;17.73;62.79;96500.81;5077004;28;19993;-82
2021/09/17 11:21:18;;;;;;;;;;;;;;;17.76;62.01;96500.28;5076661;28;19983;-82
2021/09/17 11:23:48;;;;;;;;;;;;;;;17.68;54.45;96424.69;5077148;28;20353;-82
2021/09/17 11:26:21;;;;;;;;;;;;;;;17.56;57.29;96454.09;5077515;28;19967;-82
2021/09/17 11:29:01;;;;;;;;;;;;;;;17.59;61.08;96488.03;5077344;28;19954;-82
2021/09/17 11:31:31;;;;;;;;;;;;;;;17.64;57.84;96456.22;5069128;28;19962;-82
2021/09/17 11:34:07;;;;;;;;;;;;;;;17.59;57.89;96455.41;5076844;28;19989;-82
2021/09/17 11:36:46;;;;;;;;;;;;;;;17.59;56.42;96445.59;5061732;28;19975;-82
2021/09/17 11:39:23;;;;;;;;;;;;;;;17.59;59.45;96466.03;5076852;28;19996;-82
2021/09/17 11:41:53;;;;;;;;;;;;;;;17.65;59.68;96468.41;5063796;28;19977;-82
2021/09/17 11:44:36;;;;;;;;;;;;;;;17.67;57.85;96456.75;5076561;28;19967;-82
2021/09/17 11:47:04;;;;;;;;;;;;;;;17.75;62.36;96488.88;5076863;28;20334;-82
2021/09/17 11:49:31;;;;;;;;;;;;;;;17.79;58.79;96457.31;5074960;28;19967;-82
2021/09/17 11:52:05;;;;;;;;;;;;;;;17.77;58.75;96456.78;5076753;28;19966;-82
2021/09/17 11:54:31;;;;;;;;;;;;;;;17.71;56.53;96433.97;5076203;28;19964;-82
2021/09/17 11:57:03;;;;;;;;;;;;;;;17.70;59.39;96464.19;5076523;28;19963;-82
2021/09/17 11:59:30;;;;;;;;;;;;;;;17.82;60.50;96467.38;5076320;28;20022;-82
2021/09/17 12:02:14;;;;;;;;;;;;;;;17.82;59.13;96444.34;5076331;28;20416;-82
2021/09/17 12:04:41;;;;;;;;;;;;;;;17.93;59.77;96455.78;5076278;28;20040;-82
2021/09/17 12:07:08;;;;;;;;;;;;;;;18.05;59.74;96453.63;5076185;28;19976;-82
2021/09/17 12:09:34;;;;;;;;;;;;;;;18.18;60.31;96449.66;5076189;28;19967;-82
2021/09/17 12:12:00;;;;;;;;;;;;;;;18.32;59.15;96438.50;5076071;28;19979;-82
2021/09/17 12:14:25;;;;;;;;;;;;;;;18.42;59.61;96441.94;5076046;28;20438;-82
2021/09/17 12:16:51;;;;;;;;;;;;;;;18.52;58.21;96432.34;5076297;28;19965;-82
2021/09/17 12:19:17;;;;;;;;;;;;;;;18.59;59.73;96433.69;5075945;28;19996;-82
2021/09/17 12:21:43;;;;;;;;;;;;;;;18.69;59.53;96437.34;5075691;28;19969;-82
2021/09/17 12:24:20;;;;;;;;;;;;;;;18.73;57.68;96422.47;5076128;28;19968;-82
2021/09/17 12:26:59;;;;;;;;;;;;;;;18.78;58.26;96425.13;5076082;28;19965;-82
2021/09/17 12:29:25;;;;;;;;;;;;;;;18.85;57.55;96425.66;5075473;28;20407;-82
2021/09/17 12:31:51;;;;;;;;;;;;;;;18.91;55.62;96407.84;5075620;28;19960;-82
2021/09/17 12:34:20;;;;;;;;;;;;;;;18.80;56.94;96421.16;5075535;28;19998;-82
2021/09/17 12:36:49;;;;;;;;;;;;;;;18.84;56.26;96410.81;5075699;28;19977;-82
2021/09/17 12:39:18;;;;;;;;;;;;;;;19.06;53.32;96391.81;5074397;28;19990;-82
2021/09/17 12:41:44;;;;;;;;;;;;;;;19.28;54.06;96388.81;5075557;28;19966;-82
2021/09/17 12:44:11;;;;;;;;;;;;;;;19.29;53.78;96401.00;5073972;28;19980;-82
2021/09/17 12:46:44;;;;;;;;;;;;;;;19.43;53.35;96393.22;5075519;28;19955;-82
2021/09/17 12:49:13;;;;;;;;;;;;;;;19.58;53.81;96387.81;5075545;28;19964;-82